Time;durP1;ratioP1;P1;durP2;ratioP2;P2;SDS_P1;SDS_P2;PMS_P1;PMS_P2;Temp;Humidity;BMP_temperature;BMP_pressure;BME280_temperature;BME280_humidity;BME280_pressure;Samples;Min_cycle;Max_cycle;Signal;HPM_P1;HPM_P2
2022/12/25 00:01:51;;;;;;;3.73;1.80;;;8.60;69.60;;;;;;5008955;28;46607;-81
2022/12/25 00:04:16;;;;;;;4.33;1.97;;;8.50;70.10;;;;;;5007488;28;46566;-80
2022/12/25 00:06:42;;;;;;;6.90;1.80;;;8.40;70.50;;;;;;5011352;28;46458;-82
2022/12/25 00:09:07;;;;;;;6.00;1.60;;;8.30;70.90;;;;;;5008270;28;46498;-81
2022/12/25 00:11:33;;;;;;;4.13;2.00;;;8.20;71.10;;;;;;5006628;28;47584;-81
2022/12/25 00:13:59;;;;;;;2.70;1.50;;;8.20;71.10;;;;;;5004244;28;46420;-77
2022/12/25 00:16:25;;;;;;;2.53;1.30;;;8.30;71.10;;;;;;5011336;28;46490;-80
2022/12/25 00:18:52;;;;;;;6.10;1.50;;;8.40;71.10;;;;;;5009614;28;46443;-82
2022/12/25 00:21:19;;;;;;;3.03;1.40;;;8.30;71.10;;;;;;5013980;28;47667;-82
2022/12/25 00:23:45;;;;;;;3.00;1.77;;;8.30;71.00;;;;;;5012444;28;46434;-81
2022/12/25 00:26:14;;;;;;;5.27;1.53;;;8.20;71.30;;;;;;5012010;28;46333;-82
2022/12/25 00:28:39;;;;;;;7.73;1.47;;;8.10;71.50;;;;;;5012892;28;46419;-81
2022/12/25 00:31:11;;;;;;;3.10;1.40;;;8.00;71.70;;;;;;5013189;28;47043;-82
2022/12/25 00:33:38;;;;;;;3.57;1.80;;;8.00;72.00;;;;;;5012162;28;45927;-82
2022/12/25 00:36:07;;;;;;;4.63;1.83;;;8.00;72.00;;;;;;5012138;28;46534;-83
2022/12/25 00:38:34;;;;;;;5.77;1.43;;;8.00;72.00;;;;;;5012773;28;46645;-81
2022/12/25 00:41:11;;;;;;;8.00;1.27;;;8.00;72.10;;;;;;5012455;28;46428;-82
2022/12/25 00:43:37;;;;;;;3.43;1.40;;;8.10;72.10;;;;;;5015765;28;47561;-79
2022/12/25 00:46:04;;;;;;;1.70;1.20;;;8.10;73.20;;;;;;5025281;28;46853;-80
2022/12/25 00:48:31;;;;;;;6.13;1.43;;;8.10;72.00;;;;;;5011396;28;46527;-83
2022/12/25 00:50:58;;;;;;;3.80;1.30;;;8.10;71.80;;;;;;5011070;28;47136;-82
2022/12/25 00:53:25;;;;;;;2.67;1.00;;;8.20;71.60;;;;;;5010621;28;46363;-82
2022/12/25 00:55:56;;;;;;;8.60;1.50;;;8.20;71.40;;;;;;5011334;28;46380;-81
2022/12/25 00:58:23;;;;;;;4.03;1.77;;;8.20;71.30;;;;;;5012703;28;46431;-82
2022/12/25 01:00:49;;;;;;;2.80;1.50;;;8.20;71.40;;;;;;5011543;28;46329;-82
2022/12/25 01:03:16;;;;;;;3.37;1.30;;;8.20;71.60;;;;;;5011721;28;46484;-82
2022/12/25 01:05:41;;;;;;;4.00;1.50;;;8.10;71.70;;;;;;5009589;28;46355;-81
2022/12/25 01:08:07;;;;;;;7.77;1.67;;;8.10;71.80;;;;;;5018276;28;45976;-80
2022/12/25 01:10:33;;;;;;;4.93;1.60;;;8.10;71.70;;;;;;5011009;28;48600;-81
2022/12/25 01:12:59;;;;;;;2.13;1.47;;;8.00;71.80;;;;;;5012820;28;46407;-81
2022/12/25 01:15:24;;;;;;;4.17;2.00;;;8.00;72.10;;;;;;5016320;28;46532;-82
2022/12/25 01:17:50;;;;;;;3.20;1.83;;;7.90;72.10;;;;;;5018019;28;46479;-85
2022/12/25 01:20:17;;;;;;;3.37;1.57;;;7.90;72.30;;;;;;5010650;28;46515;-82
2022/12/25 01:22:43;;;;;;;3.07;1.87;;;7.90;71.60;;;;;;5013120;28;46461;-82
2022/12/25 01:25:10;;;;;;;3.87;2.33;;;7.90;72.60;;;;;;5011650;28;46467;-83
2022/12/25 01:27:36;;;;;;;4.00;2.30;;;7.90;72.30;;;;;;5013206;28;46438;-81
2022/12/25 01:30:01;;;;;;;5.17;2.07;;;8.00;72.20;;;;;;5011125;28;48378;-81
2022/12/25 01:32:30;;;;;;;5.93;2.40;;;8.10;72.10;;;;;;5011039;28;46408;-82
2022/12/25 01:34:55;;;;;;;2.93;1.90;;;8.10;73.10;;;;;;5028508;28;46587;-82
2022/12/25 01:37:23;;;;;;;3.10;1.77;;;8.20;71.90;;;;;;5013358;28;46354;-83
2022/12/25 01:39:49;;;;;;;7.40;1.77;;;8.20;71.80;;;;;;5025270;28;48439;-82
2022/12/25 01:42:16;;;;;;;2.90;2.00;;;8.20;71.80;;;;;;5023152;28;46547;-79
2022/12/25 01:44:44;;;;;;;6.10;1.70;;;8.20;71.80;;;;;;5010805;28;46439;-81
2022/12/25 01:47:11;;;;;;;2.77;2.20;;;8.20;72.10;;;;;;5011392;28;46556;-81
2022/12/25 01:49:39;;;;;;;6.20;1.87;;;8.20;72.20;;;;;;5009366;28;46764;-79
2022/12/25 01:52:14;;;;;;;2.90;1.83;;;8.10;72.20;;;;;;5011261;28;46467;-79
2022/12/25 01:54:54;;;;;;;3.20;1.47;;;8.20;72.20;;;;;;5011634;28;46305;-81
2022/12/25 01:57:24;;;;;;;2.80;1.37;;;8.20;72.10;;;;;;5011495;28;46456;-83
2022/12/25 01:59:50;;;;;;;3.60;1.50;;;8.30;72.00;;;;;;5010854;28;48295;-82
2022/12/25 02:02:16;;;;;;;3.60;1.43;;;8.40;71.80;;;;;;5012194;28;46940;-80
2022/12/25 02:04:49;;;;;;;3.40;1.30;;;8.40;71.80;;;;;;5012550;28;46028;-81
2022/12/25 02:07:16;;;;;;;2.50;1.07;;;8.50;71.70;;;;;;5010967;28;46413;-81
2022/12/25 02:09:42;;;;;;;3.67;1.40;;;8.50;71.60;;;;;;5010327;28;46920;-83
2022/12/25 02:12:13;;;;;;;3.37;1.40;;;8.50;71.40;;;;;;5010533;28;46476;-79
2022/12/25 02:14:39;;;;;;;2.60;1.20;;;8.50;71.30;;;;;;5011335;28;46466;-81
2022/12/25 02:17:36;;;;;;;2.70;1.20;;;8.60;71.40;;;;;;5013931;28;46893;-82
2022/12/25 02:20:12;;;;;;;3.23;1.03;;;8.70;72.60;;;;;;5012873;28;47623;-84
2022/12/25 02:23:11;;;;;;;3.17;1.00;;;8.70;71.40;;;;;;5010391;28;46591;-81
2022/12/25 02:26:07;;;;;;;5.90;1.50;;;8.80;71.40;;;;;;5010494;28;46530;-80
2022/12/25 02:28:51;;;;;;;4.30;1.70;;;8.80;71.30;;;;;;5012833;28;45978;-80
2022/12/25 02:31:36;;;;;;;3.83;1.00;;;8.80;71.20;;;;;;5012137;28;46611;-81
2022/12/25 02:34:14;;;;;;;3.00;1.53;;;8.80;71.30;;;;;;5006847;28;46420;-81
2022/12/25 02:37:02;;;;;;;2.77;1.40;;;8.80;71.40;;;;;;5010333;28;46521;-83
2022/12/25 03:06:41;;;;;;;7.33;2.00;;;8.80;71.80;;;;;;5008689;28;46730;-82
2022/12/25 03:07:19;;;;;;;3.77;1.60;;;9.10;71.20;;;;;;5010761;28;46407;-79
2022/12/25 03:12:41;;;;;;;3.80;1.57;;;9.10;71.10;;;;;;5010404;28;46465;-83
2022/12/25 03:17:56;;;;;;;4.57;1.70;;;9.30;71.10;;;;;;5011312;28;46433;-84
2022/12/25 03:28:35;;;;;;;4.20;1.47;;;9.10;71.70;;;;;;5011934;28;46464;-82
2022/12/25 03:31:11;;;;;;;5.40;1.80;;;9.10;71.70;;;;;;5009904;28;46354;-82
2022/12/25 04:37:50;;;;;;;6.07;1.50;;;9.20;71.50;;;;;;5014156;28;46636;-81
2022/12/25 04:40:16;;;;;;;6.00;1.77;;;9.30;72.90;;;;;;5013101;28;46387;-81
2022/12/25 04:42:41;;;;;;;3.80;1.60;;;9.30;70.80;;;;;;5013764;28;47091;-81
2022/12/25 04:45:07;;;;;;;3.60;1.77;;;9.30;71.90;;;;;;5018537;28;46297;-81
2022/12/25 04:47:33;;;;;;;4.63;1.50;;;9.30;72.00;;;;;;5017157;28;46401;-81
2022/12/25 04:49:58;;;;;;;4.80;1.47;;;9.30;71.90;;;;;;5012015;28;46679;-82
2022/12/25 04:52:24;;;;;;;2.40;1.60;;;9.30;72.10;;;;;;5015315;28;46385;-79
2022/12/25 04:54:50;;;;;;;2.23;1.40;;;9.30;72.00;;;;;;5010273;28;46542;-82
2022/12/25 04:57:16;;;;;;;2.70;1.27;;;9.40;72.10;;;;;;5012792;28;46510;-81
2022/12/25 04:59:41;;;;;;;7.30;1.60;;;9.40;72.00;;;;;;5012279;28;46673;-82
2022/12/25 05:02:07;;;;;;;3.13;1.43;;;9.40;72.00;;;;;;5010028;28;49731;-80
2022/12/25 05:04:32;;;;;;;3.80;1.50;;;9.40;71.90;;;;;;5011173;28;46367;-82
2022/12/25 05:06:58;;;;;;;4.53;1.57;;;9.40;71.70;;;;;;5013985;28;46434;-81
2022/12/25 05:09:24;;;;;;;4.03;1.40;;;9.40;71.50;;;;;;5012429;28;46363;-81
2022/12/25 05:11:50;;;;;;;3.70;1.77;;;9.30;71.40;;;;;;5013009;28;47807;-80
2022/12/25 05:14:16;;;;;;;1.93;1.37;;;9.30;71.50;;;;;;5012260;28;46464;-78
2022/12/25 05:16:41;;;;;;;1.90;1.20;;;9.30;71.30;;;;;;5008712;28;46329;-81
2022/12/25 05:19:08;;;;;;;2.97;1.50;;;9.30;71.40;;;;;;5014178;28;46441;-81
2022/12/25 05:21:33;;;;;;;3.57;1.40;;;9.30;71.50;;;;;;5011923;28;46382;-80
2022/12/25 05:23:59;;;;;;;6.27;1.40;;;9.30;71.50;;;;;;5018941;28;46329;-81
2022/12/25 05:26:25;;;;;;;2.47;1.43;;;9.30;71.40;;;;;;5011479;28;46476;-80
2022/12/25 05:28:52;;;;;;;7.07;1.53;;;9.30;71.30;;;;;;5011449;28;46388;-78
2022/12/25 05:31:18;;;;;;;4.00;1.43;;;9.30;71.10;;;;;;5009537;28;46473;-81
2022/12/25 05:33:43;;;;;;;2.70;1.43;;;9.30;71.20;;;;;;5012865;28;46390;-81
2022/12/25 05:36:11;;;;;;;2.93;1.67;;;9.30;71.60;;;;;;5014066;28;46436;-80
2022/12/25 05:38:37;;;;;;;2.60;1.33;;;9.30;71.70;;;;;;5012211;28;46377;-80
2022/12/25 05:41:03;;;;;;;2.03;1.40;;;9.20;71.60;;;;;;5009108;28;46755;-81
2022/12/25 05:43:29;;;;;;;2.10;1.30;;;9.20;71.60;;;;;;5010923;28;46291;-79
2022/12/25 05:45:55;;;;;;;3.87;1.40;;;9.20;71.70;;;;;;5010719;28;46463;-80
2022/12/25 05:48:21;;;;;;;2.77;1.60;;;9.20;71.70;;;;;;5017525;28;46326;-80
2022/12/25 05:50:46;;;;;;;3.75;1.52;;;9.30;71.70;;;;;;5011941;28;46579;-80
2022/12/25 05:53:14;;;;;;;1.93;1.40;;;9.30;71.60;;;;;;5011880;28;46387;-81
2022/12/25 05:55:44;;;;;;;4.37;1.40;;;9.30;72.00;;;;;;5009971;28;46954;-80
2022/12/25 05:58:12;;;;;;;2.77;1.73;;;9.30;72.10;;;;;;5026932;28;46430;-79
2022/12/25 06:00:38;;;;;;;3.90;1.67;;;9.30;72.20;;;;;;5011015;28;46777;-81
2022/12/25 06:03:04;;;;;;;1.90;1.20;;;9.30;72.00;;;;;;5010826;28;46502;-80
2022/12/25 06:05:30;;;;;;;5.50;1.30;;;9.30;72.00;;;;;;5018243;28;45923;-80
2022/12/25 06:07:56;;;;;;;2.50;1.30;;;9.30;72.00;;;;;;5009952;28;46443;-81
2022/12/25 06:10:22;;;;;;;2.20;1.30;;;9.30;72.10;;;;;;5010569;28;46298;-80
2022/12/25 06:12:48;;;;;;;2.27;1.20;;;9.20;72.10;;;;;;5012170;28;46403;-80
2022/12/25 06:15:13;;;;;;;1.47;1.10;;;9.20;72.30;;;;;;5016195;28;46830;-81
2022/12/25 06:17:39;;;;;;;2.50;1.20;;;9.20;72.40;;;;;;5014026;28;46618;-81
2022/12/25 06:20:05;;;;;;;2.00;1.23;;;9.10;72.50;;;;;;5008961;28;48271;-81
2022/12/25 06:22:32;;;;;;;3.23;1.60;;;9.10;72.60;;;;;;5008087;28;46408;-79
2022/12/25 06:24:58;;;;;;;4.00;1.17;;;9.10;72.80;;;;;;5008714;28;46580;-81
2022/12/25 06:27:24;;;;;;;7.97;1.83;;;9.10;72.80;;;;;;5010264;28;46471;-80
2022/12/25 06:29:50;;;;;;;3.33;2.27;;;9.00;72.90;;;;;;5009679;28;48492;-80
2022/12/25 06:32:15;;;;;;;6.55;3.90;;;9.00;72.90;;;;;;5010618;28;46158;-80
2022/12/25 06:34:41;;;;;;;8.27;4.03;;;9.00;73.10;;;;;;5008419;28;46424;-80
2022/12/25 06:37:06;;;;;;;3.07;1.90;;;9.10;74.10;;;;;;5010620;28;46562;-80
2022/12/25 06:39:32;;;;;;;2.70;1.93;;;9.10;74.00;;;;;;5008344;28;46630;-80
2022/12/25 06:41:58;;;;;;;2.37;1.40;;;9.10;73.90;;;;;;5015287;28;46527;-81
2022/12/25 06:44:23;;;;;;;6.20;1.50;;;9.10;73.80;;;;;;5012793;28;46572;-79
2022/12/25 06:46:50;;;;;;;2.67;1.23;;;9.10;73.90;;;;;;5013941;28;45949;-80
2022/12/25 06:49:17;;;;;;;2.07;1.53;;;9.00;73.70;;;;;;5014389;28;46714;-78
2022/12/25 06:51:43;;;;;;;2.90;1.50;;;9.00;73.80;;;;;;5014739;28;46419;-80
2022/12/25 06:54:08;;;;;;;2.60;1.43;;;9.10;73.70;;;;;;5011984;28;46204;-80
2022/12/25 06:56:34;;;;;;;3.20;1.80;;;9.10;73.60;;;;;;5010036;28;46630;-79
2022/12/25 06:59:05;;;;;;;3.13;2.10;;;9.10;73.60;;;;;;5013118;28;46782;-81
2022/12/25 07:01:34;;;;;;;1.87;1.43;;;9.20;73.40;;;;;;5026858;28;46502;-81
2022/12/25 07:04:03;;;;;;;2.23;1.37;;;9.20;73.30;;;;;;5009107;28;46716;-79
2022/12/25 07:06:29;;;;;;;3.60;2.20;;;9.20;73.20;;;;;;5009305;28;46464;-79
2022/12/25 07:08:54;;;;;;;2.37;1.37;;;9.30;73.20;;;;;;5008346;28;47668;-81
2022/12/25 07:11:21;;;;;;;1.90;1.30;;;9.20;73.00;;;;;;5013307;28;45864;-80
2022/12/25 07:13:47;;;;;;;2.30;1.40;;;9.20;72.90;;;;;;5012945;28;46451;-80
2022/12/25 07:16:13;;;;;;;3.20;1.57;;;9.10;73.10;;;;;;5014917;28;46559;-79
2022/12/25 07:18:39;;;;;;;4.33;1.53;;;9.20;73.30;;;;;;5016565;28;47120;-80
2022/12/25 07:21:10;;;;;;;1.93;1.20;;;9.10;73.40;;;;;;5014405;28;46479;-80
2022/12/25 07:23:36;;;;;;;1.87;1.30;;;9.10;73.40;;;;;;5013160;28;46460;-80
2022/12/25 07:26:02;;;;;;;2.70;1.30;;;9.20;73.50;;;;;;5015269;28;46396;-80
2022/12/25 07:28:28;;;;;;;6.30;2.30;;;9.20;73.50;;;;;;5017148;28;49529;-80
2022/12/25 07:30:54;;;;;;;10.17;5.00;;;9.20;73.20;;;;;;5020476;28;46365;-81
2022/12/25 07:33:20;;;;;;;14.70;6.50;;;9.30;73.20;;;;;;5019255;28;46494;-80
2022/12/25 07:35:45;;;;;;;6.57;4.10;;;9.30;73.10;;;;;;5016673;28;46391;-82
2022/12/25 07:38:11;;;;;;;13.33;6.80;;;9.40;73.10;;;;;;5015221;28;46264;-84
2022/12/25 07:40:37;;;;;;;26.70;11.60;;;9.30;72.90;;;;;;5011060;28;46203;-82
2022/12/25 07:43:03;;;;;;;12.50;6.60;;;9.30;73.00;;;;;;5013976;28;46448;-79
2022/12/25 07:45:28;;;;;;;8.87;4.40;;;9.20;73.20;;;;;;5014683;28;46447;-80
2022/12/25 07:47:54;;;;;;;8.40;5.20;;;9.10;73.60;;;;;;5010100;28;48089;-80
2022/12/25 07:50:20;;;;;;;8.37;4.47;;;9.00;73.90;;;;;;5013846;28;45768;-80
2022/12/25 07:52:45;;;;;;;5.90;3.90;;;9.00;74.20;;;;;;5018224;28;46895;-80
2022/12/25 07:55:11;;;;;;;4.00;2.50;;;8.90;74.40;;;;;;5017665;28;46908;-80
2022/12/25 07:57:37;;;;;;;6.97;4.37;;;8.90;74.70;;;;;;5014131;28;46518;-82
2022/12/25 08:00:04;;;;;;;21.60;11.90;;;8.80;74.80;;;;;;5013843;28;46494;-79
2022/12/25 08:02:30;;;;;;;16.43;8.70;;;8.80;74.90;;;;;;5017056;28;45903;-79
2022/12/25 08:04:55;;;;;;;14.10;6.83;;;8.80;74.90;;;;;;5012654;28;46387;-81
2022/12/25 08:07:21;;;;;;;19.77;7.83;;;8.80;75.10;;;;;;5013837;28;47436;-80
2022/12/25 08:09:47;;;;;;;24.10;9.27;;;8.80;74.90;;;;;;5013439;28;46853;-81
2022/12/25 08:12:12;;;;;;;12.70;4.80;;;8.80;75.00;;;;;;5014562;28;46365;-79
2022/12/25 08:14:38;;;;;;;4.87;2.83;;;8.90;74.90;;;;;;5014956;28;46153;-81
2022/12/25 08:17:04;;;;;;;8.70;4.23;;;8.90;74.90;;;;;;5011225;28;46821;-81
2022/12/25 08:19:29;;;;;;;7.47;2.53;;;9.00;75.00;;;;;;5016081;28;46323;-81
2022/12/25 08:21:55;;;;;;;2.77;2.00;;;9.10;74.80;;;;;;5032637;28;46551;-82
2022/12/25 08:24:21;;;;;;;3.60;2.10;;;9.10;74.90;;;;;;5016559;28;46544;-82
2022/12/25 08:26:46;;;;;;;2.80;1.83;;;9.10;75.00;;;;;;5012796;28;46469;-84
2022/12/25 08:29:12;;;;;;;3.63;1.97;;;9.20;74.90;;;;;;5007314;28;46856;-82
2022/12/25 08:31:40;;;;;;;7.83;2.37;;;9.20;75.00;;;;;;5015112;28;46353;-82
2022/12/25 08:34:06;;;;;;;5.23;2.47;;;9.30;75.00;;;;;;5017135;28;46472;-85
2022/12/25 08:36:31;;;;;;;6.47;2.50;;;9.30;74.90;;;;;;5014325;28;47246;-81
2022/12/25 08:38:57;;;;;;;3.60;1.83;;;9.50;74.70;;;;;;5012561;28;46336;-81
2022/12/25 08:41:22;;;;;;;4.27;1.60;;;9.50;74.60;;;;;;5015942;28;46366;-81
2022/12/25 08:43:48;;;;;;;4.10;2.30;;;9.60;74.50;;;;;;5014060;28;46403;-81
2022/12/25 08:46:13;;;;;;;2.00;1.50;;;9.70;74.50;;;;;;5019209;28;48628;-81
2022/12/25 08:48:44;;;;;;;2.30;1.43;;;9.70;74.50;;;;;;5010915;28;46232;-81
2022/12/25 08:51:15;;;;;;;3.00;1.70;;;9.80;74.20;;;;;;5011231;28;46664;-82
2022/12/25 08:53:45;;;;;;;2.57;1.47;;;9.90;74.30;;;;;;5016803;28;46377;-81
2022/12/25 08:56:11;;;;;;;2.83;1.60;;;9.90;74.20;;;;;;5009885;28;48229;-81
2022/12/25 08:58:37;;;;;;;2.17;1.37;;;9.90;74.50;;;;;;5016988;28;46676;-80
2022/12/25 09:01:03;;;;;;;2.30;1.70;;;9.90;74.60;;;;;;5011582;28;46910;-79
2022/12/25 09:03:31;;;;;;;2.10;1.80;;;10.00;73.90;;;;;;5016568;28;46608;-81
2022/12/25 09:06:02;;;;;;;2.07;1.40;;;10.10;74.10;;;;;;5014453;28;46423;-82
2022/12/25 09:08:27;;;;;;;2.80;1.20;;;10.10;74.10;;;;;;5011981;28;46658;-80
2022/12/25 09:10:53;;;;;;;3.13;1.70;;;10.20;74.10;;;;;;5013794;28;46374;-80
2022/12/25 09:13:18;;;;;;;1.90;1.20;;;10.30;73.80;;;;;;5010126;28;46388;-83
2022/12/25 09:15:44;;;;;;;2.97;1.30;;;10.40;73.70;;;;;;5014390;28;48203;-82
2022/12/25 09:18:10;;;;;;;1.40;1.00;;;10.40;73.50;;;;;;5009134;28;46623;-81
2022/12/25 09:20:35;;;;;;;2.63;1.40;;;10.60;73.50;;;;;;5024091;28;45866;-81
2022/12/25 09:23:01;;;;;;;1.90;1.33;;;10.70;73.30;;;;;;5017755;28;46384;-80
2022/12/25 09:25:27;;;;;;;1.50;1.00;;;10.80;73.20;;;;;;5014027;28;47199;-82
2022/12/25 09:27:53;;;;;;;1.87;1.03;;;10.90;73.10;;;;;;5011355;28;46631;-84
2022/12/25 09:30:19;;;;;;;1.80;1.20;;;10.90;73.00;;;;;;5011188;28;47107;-83
2022/12/25 09:32:45;;;;;;;2.80;1.20;;;10.90;72.90;;;;;;5012221;28;46593;-83
2022/12/25 09:35:12;;;;;;;2.00;1.10;;;11.00;73.30;;;;;;5026510;28;48580;-84
2022/12/25 09:37:38;;;;;;;1.60;1.10;;;11.00;73.20;;;;;;5026284;28;46552;-85
2022/12/25 09:40:04;;;;;;;2.80;1.07;;;11.10;73.40;;;;;;5011129;28;46368;-86
2022/12/25 09:42:31;;;;;;;3.07;1.60;;;11.10;73.50;;;;;;5012497;28;46624;-80
2022/12/25 09:45:25;;;;;;;4.20;1.10;;;11.10;73.50;;;;;;5011877;28;46388;-81
2022/12/25 09:47:56;;;;;;;3.57;1.77;;;11.20;73.50;;;;;;5014877;28;46619;-82
2022/12/25 09:50:47;;;;;;;2.17;1.37;;;11.30;73.60;;;;;;5012866;28;46834;-84
2022/12/25 09:53:23;;;;;;;6.13;1.97;;;11.30;73.70;;;;;;5015322;28;46443;-80
2022/12/25 09:56:20;;;;;;;5.50;2.30;;;11.30;73.60;;;;;;5010026;28;49112;-81
2022/12/25 09:58:45;;;;;;;4.67;1.67;;;11.40;73.50;;;;;;5008335;28;46494;-81
2022/12/25 10:01:11;;;;;;;2.73;1.50;;;11.50;73.50;;;;;;5011091;28;46549;-82
2022/12/25 10:03:45;;;;;;;4.10;1.90;;;11.60;73.30;;;;;;5011393;28;46611;-82
2022/12/25 10:06:43;;;;;;;1.80;1.10;;;11.60;73.40;;;;;;5018515;28;47956;-81
2022/12/25 10:09:33;;;;;;;1.30;0.90;;;11.60;73.20;;;;;;4985257;28;45859;-82
2022/12/25 10:12:57;;;;;;;3.23;1.33;;;11.70;73.20;;;;;;5013199;28;46359;-83
2022/12/25 10:15:35;;;;;;;2.20;1.20;;;11.80;73.20;;;;;;4926674;28;46576;-80
2022/12/25 10:18:29;;;;;;;1.70;0.90;;;11.90;73.00;;;;;;5014199;28;47927;-83
2022/12/25 10:20:57;;;;;;;4.90;2.17;;;12.00;72.80;;;;;;5015820;28;46408;-82
2022/12/25 10:23:37;;;;;;;9.83;3.57;;;12.10;72.80;;;;;;5014270;28;46264;-82
2022/12/25 10:26:03;;;;;;;7.67;2.50;;;12.20;72.80;;;;;;5010444;28;46625;-82
2022/12/25 10:28:42;;;;;;;2.87;1.20;;;12.20;72.80;;;;;;5012502;28;46500;-82
2022/12/25 10:31:19;;;;;;;2.80;1.50;;;12.30;72.60;;;;;;5010625;28;46453;-81
2022/12/25 10:33:46;;;;;;;6.87;1.60;;;12.40;72.60;;;;;;5016358;28;46671;-82
2022/12/25 10:36:13;;;;;;;4.63;2.00;;;12.30;72.50;;;;;;5009338;28;46151;-81
2022/12/25 10:38:38;;;;;;;3.23;1.77;;;12.30;72.50;;;;;;5015866;28;48437;-79
2022/12/25 10:41:33;;;;;;;5.17;1.90;;;12.30;72.40;;;;;;5014270;28;46474;-83
2022/12/25 10:43:59;;;;;;;3.20;1.70;;;12.40;72.40;;;;;;5013557;28;46474;-82
2022/12/25 10:46:27;;;;;;;4.30;1.70;;;12.40;72.30;;;;;;5013694;28;46505;-80
2022/12/25 10:48:59;;;;;;;9.50;1.70;;;12.50;72.30;;;;;;5009805;28;46961;-83
2022/12/25 10:51:36;;;;;;;4.60;1.97;;;12.40;72.10;;;;;;5015671;28;46475;-80
2022/12/25 10:54:16;;;;;;;5.67;1.80;;;12.40;72.20;;;;;;5015728;28;46221;-81
2022/12/25 10:56:58;;;;;;;4.47;1.63;;;12.40;72.20;;;;;;5011830;28;46504;-81
2022/12/25 10:59:26;;;;;;;4.17;1.80;;;12.40;72.10;;;;;;5011982;28;49520;-82
2022/12/25 11:01:53;;;;;;;5.63;1.13;;;12.50;72.10;;;;;;5015182;28;46395;-81
2022/12/25 11:04:23;;;;;;;2.63;1.27;;;12.50;71.70;;;;;;5014223;28;46461;-82
2022/12/25 11:07:20;;;;;;;3.97;1.83;;;12.50;71.70;;;;;;5010962;28;46363;-81
2022/12/25 11:09:54;;;;;;;2.40;1.30;;;12.60;71.50;;;;;;5012180;28;47546;-82
2022/12/25 11:12:28;;;;;;;2.97;1.23;;;12.70;71.30;;;;;;5012942;28;46512;-79
2022/12/25 11:14:56;;;;;;;2.47;1.30;;;12.80;71.10;;;;;;5038983;28;46376;-82
2022/12/25 11:17:25;;;;;;;2.80;1.10;;;12.90;70.80;;;;;;5021127;28;46358;-82
2022/12/25 11:19:55;;;;;;;1.63;1.00;;;13.20;71.70;;;;;;5020772;28;48130;-82
2022/12/25 11:22:21;;;;;;;2.03;1.10;;;13.20;70.00;;;;;;5014690;28;46639;-80
2022/12/25 11:24:46;;;;;;;2.40;1.23;;;13.30;69.50;;;;;;5008486;28;46360;-82
2022/12/25 11:27:27;;;;;;;2.30;1.20;;;13.40;69.30;;;;;;5009538;28;46339;-83
2022/12/25 11:30:00;;;;;;;2.63;1.20;;;13.50;68.80;;;;;;5011813;28;46870;-82
2022/12/25 11:32:36;;;;;;;2.30;1.20;;;13.60;68.80;;;;;;5008756;28;46775;-83
2022/12/25 11:35:04;;;;;;;2.57;1.10;;;13.60;68.40;;;;;;5013095;28;46464;-80
2022/12/25 11:37:33;;;;;;;2.60;1.30;;;13.60;68.40;;;;;;5015518;28;46351;-81
2022/12/25 11:39:59;;;;;;;8.93;1.63;;;13.60;67.90;;;;;;5013015;28;46388;-84
2022/12/25 11:42:40;;;;;;;4.07;1.30;;;13.60;67.70;;;;;;5005434;28;46430;-83
2022/12/25 11:45:16;;;;;;;4.13;2.30;;;13.70;67.90;;;;;;5007273;28;46556;-81
2022/12/25 11:47:50;;;;;;;3.47;1.40;;;13.70;67.80;;;;;;5010412;28;46380;-78
2022/12/25 11:50:26;;;;;;;3.10;1.20;;;13.70;67.80;;;;;;5010202;28;46443;-80
2022/12/25 11:52:52;;;;;;;2.07;1.00;;;13.70;66.80;;;;;;5012564;28;46273;-82
2022/12/25 11:55:27;;;;;;;2.40;1.10;;;13.80;67.90;;;;;;5013572;28;46513;-81
2022/12/25 11:57:57;;;;;;;1.70;1.00;;;13.70;67.80;;;;;;5011509;28;46475;-80
2022/12/25 12:00:23;;;;;;;2.17;1.03;;;13.80;67.30;;;;;;5010374;28;46407;-80
2022/12/25 12:03:10;;;;;;;2.10;1.00;;;14.00;65.60;;;;;;5011417;28;46756;-82
2022/12/25 12:05:50;;;;;;;2.20;1.10;;;14.00;66.50;;;;;;5011943;28;46705;-79
2022/12/25 12:08:15;;;;;;;14.03;5.10;;;14.20;66.00;;;;;;5012395;28;47113;-80
2022/12/25 12:10:57;;;;;;;2.17;1.27;;;14.30;65.30;;;;;;5010996;28;46325;-79
2022/12/25 12:13:34;;;;;;;2.33;1.20;;;14.40;65.00;;;;;;5013092;28;47018;-81
2022/12/25 12:16:00;;;;;;;3.40;1.17;;;14.40;64.90;;;;;;5032000;28;46503;-79
2022/12/25 12:18:26;;;;;;;2.80;1.33;;;14.40;64.50;;;;;;5014817;28;46705;-81
2022/12/25 12:21:23;;;;;;;3.63;1.70;;;14.40;64.10;;;;;;5013164;28;47391;-80
2022/12/25 12:24:10;;;;;;;5.47;2.03;;;14.30;63.80;;;;;;5014786;28;46984;-81
2022/12/25 12:26:39;;;;;;;4.20;1.80;;;14.10;63.80;;;;;;5012810;28;46952;-82
2022/12/25 12:29:27;;;;;;;5.73;2.13;;;14.10;64.10;;;;;;5018476;28;46456;-81
2022/12/25 12:31:55;;;;;;;2.57;1.20;;;14.10;64.20;;;;;;5011113;28;46625;-81
2022/12/25 12:34:39;;;;;;;3.03;1.17;;;14.10;64.20;;;;;;5012388;28;46552;-80
2022/12/25 12:37:13;;;;;;;4.13;1.70;;;14.10;63.80;;;;;;5013795;28;46452;-82
2022/12/25 12:39:41;;;;;;;4.77;1.83;;;14.10;64.00;;;;;;5013346;28;46328;-80
2022/12/25 12:42:19;;;;;;;4.33;1.80;;;14.10;63.80;;;;;;5019473;28;49655;-81
2022/12/25 12:44:48;;;;;;;2.93;1.10;;;14.10;63.60;;;;;;5012303;28;46400;-81
2022/12/25 12:47:50;;;;;;;4.27;1.70;;;14.00;63.60;;;;;;5013342;28;46372;-82
2022/12/25 12:50:26;;;;;;;4.10;1.57;;;14.00;63.70;;;;;;4953509;28;46842;-81
2022/12/25 12:52:52;;;;;;;4.53;1.80;;;13.90;63.60;;;;;;5001480;28;48095;-82
2022/12/25 12:55:31;;;;;;;3.73;1.73;;;13.80;63.30;;;;;;5010461;28;46412;-81
2022/12/25 12:58:02;;;;;;;5.40;2.10;;;13.90;63.50;;;;;;5013569;28;46443;-82
2022/12/25 13:00:45;;;;;;;2.20;1.00;;;13.80;64.50;;;;;;5012231;28;46447;-79
2022/12/25 13:04:01;;;;;;;1.90;1.00;;;13.80;63.50;;;;;;5011497;28;46452;-80
2022/12/25 13:07:07;;;;;;;3.23;1.27;;;13.80;63.10;;;;;;4950102;28;46500;-82
2022/12/25 13:09:55;;;;;;;1.67;0.90;;;13.80;63.20;;;;;;4921889;28;46630;-80
2022/12/25 13:12:22;;;;;;;2.63;1.30;;;13.70;63.00;;;;;;5010298;28;46501;-80
2022/12/25 13:14:49;;;;;;;2.83;1.13;;;13.70;63.70;;;;;;5012654;28;49176;-81
2022/12/25 13:17:21;;;;;;;3.17;1.60;;;13.70;62.30;;;;;;5011681;28;47137;-79
2022/12/25 13:19:56;;;;;;;2.37;1.30;;;13.60;62.30;;;;;;5030383;28;46416;-81
2022/12/25 13:22:30;;;;;;;7.83;2.50;;;13.60;62.10;;;;;;5007195;28;46680;-79
2022/12/25 13:25:01;;;;;;;4.90;2.27;;;13.60;61.80;;;;;;5011452;28;47992;-83
2022/12/25 13:27:29;;;;;;;4.50;2.50;;;13.60;61.60;;;;;;5012855;28;46986;-80
2022/12/25 13:29:56;;;;;;;3.43;1.73;;;13.70;61.70;;;;;;5012184;28;46987;-81
2022/12/25 13:32:31;;;;;;;2.53;1.10;;;13.60;61.40;;;;;;5010104;28;46849;-83
2022/12/25 13:34:58;;;;;;;2.53;1.00;;;13.60;60.90;;;;;;5013602;28;47660;-79
2022/12/25 13:37:27;;;;;;;2.70;1.20;;;13.60;61.00;;;;;;5012202;28;46427;-81
2022/12/25 13:39:57;;;;;;;2.87;1.20;;;13.70;60.90;;;;;;5013354;28;46436;-81
2022/12/25 13:42:30;;;;;;;4.90;1.43;;;13.60;60.60;;;;;;5010645;28;46535;-80
2022/12/25 13:45:01;;;;;;;3.13;1.10;;;13.60;60.70;;;;;;5014606;28;46474;-79
2022/12/25 13:47:31;;;;;;;1.90;1.10;;;13.60;60.60;;;;;;5012840;28;46445;-84
2022/12/25 13:50:00;;;;;;;1.93;1.00;;;13.60;60.60;;;;;;5011716;28;46422;-83
2022/12/25 13:52:35;;;;;;;2.17;1.10;;;13.50;60.50;;;;;;5012577;28;46604;-80
2022/12/25 13:55:09;;;;;;;2.47;1.20;;;13.50;60.60;;;;;;5011776;28;50225;-84
2022/12/25 13:57:44;;;;;;;3.00;1.60;;;13.50;60.60;;;;;;5011511;28;46431;-83
2022/12/25 14:00:37;;;;;;;4.33;1.60;;;13.50;60.50;;;;;;5013314;28;46484;-81
2022/12/25 14:03:06;;;;;;;6.37;1.10;;;13.50;60.40;;;;;;4991198;28;46383;-79
2022/12/25 14:05:37;;;;;;;3.00;1.87;;;13.50;60.50;;;;;;5012319;28;46420;-79
2022/12/25 14:08:11;;;;;;;5.07;1.40;;;13.50;60.50;;;;;;5014486;28;45991;-81
2022/12/25 14:10:39;;;;;;;3.27;1.60;;;13.50;60.50;;;;;;5012250;28;46447;-80
2022/12/25 14:13:09;;;;;;;4.10;2.00;;;13.40;60.50;;;;;;5011413;28;46572;-81
2022/12/25 14:15:37;;;;;;;3.57;1.70;;;13.40;60.50;;;;;;5011867;28;47628;-81
2022/12/25 14:18:03;;;;;;;5.47;2.40;;;13.40;60.60;;;;;;5026783;28;46639;-80
2022/12/25 14:20:41;;;;;;;4.60;1.90;;;13.30;60.60;;;;;;5010145;28;46506;-80
2022/12/25 14:23:13;;;;;;;6.63;1.80;;;13.40;60.60;;;;;;5010725;28;46576;-81
2022/12/25 14:25:46;;;;;;;8.70;2.20;;;13.30;60.60;;;;;;5010494;28;46176;-80
2022/12/25 14:28:23;;;;;;;5.77;2.53;;;13.40;60.70;;;;;;5008660;28;46455;-80
2022/12/25 14:30:49;;;;;;;8.23;3.70;;;13.30;60.40;;;;;;5012528;28;46484;-80
2022/12/25 14:33:19;;;;;;;7.80;2.83;;;13.40;60.50;;;;;;5009929;28;46517;-80
2022/12/25 14:35:46;;;;;;;6.27;3.47;;;13.20;60.20;;;;;;5015390;28;47993;-79
2022/12/25 14:38:25;;;;;;;3.23;1.53;;;13.10;60.30;;;;;;5013160;28;46204;-80
2022/12/25 14:40:59;;;;;;;2.00;1.00;;;13.00;60.30;;;;;;5025109;28;46429;-81
2022/12/25 14:43:26;;;;;;;2.30;1.23;;;13.00;60.50;;;;;;5008402;28;46528;-82
2022/12/25 14:46:00;;;;;;;1.97;1.20;;;13.00;60.70;;;;;;5010063;28;46538;-83
2022/12/25 14:48:28;;;;;;;7.60;3.60;;;12.80;60.70;;;;;;5014897;28;46521;-82
2022/12/25 14:51:03;;;;;;;26.63;9.47;;;12.80;60.60;;;;;;5011721;28;46461;-82
2022/12/25 14:53:39;;;;;;;46.40;15.60;;;12.70;60.80;;;;;;5010274;28;46530;-85